Time;durP1;ratioP1;P1;durP2;ratioP2;P2;SDS_P1;SDS_P2;PMS_P1;PMS_P2;Temp;Humidity;BMP_temperature;BMP_pressure;BME280_temperature;BME280_humidity;BME280_pressure;Samples;Min_cycle;Max_cycle;Signal;HPM_P1;HPM_P2
2024/01/30 00:01:41;;;;;;;;;;;6.90;99.90;;;;;;4980224;28;20457;-85
2024/01/30 00:04:06;;;;;;;;;;;6.90;99.90;;;;;;5001212;28;19926;-85
2024/01/30 00:06:32;;;;;;;;;;;6.80;99.90;;;;;;4996206;28;19921;-85
2024/01/30 00:08:58;;;;;;;;;;;7.10;99.90;;;;;;4997917;28;19964;-85
2024/01/30 00:11:25;;;;;;;;;;;6.70;99.90;;;;;;4999384;28;19926;-84
2024/01/30 00:13:56;;;;;;;;;;;6.70;99.90;;;;;;4999700;28;19930;-84
2024/01/30 00:16:22;;;;;;;;;;;6.70;99.90;;;;;;5031058;28;19921;-84
2024/01/30 00:18:48;;;;;;;;;;;6.60;99.90;;;;;;5015187;28;19992;-84
2024/01/30 00:21:13;;;;;;;;;;;6.60;99.90;;;;;;5003551;28;19969;-84
2024/01/30 00:23:39;;;;;;;;;;;6.50;99.90;;;;;;4999513;28;19921;-84
2024/01/30 00:26:05;;;;;;;;;;;6.50;99.90;;;;;;5015763;28;19922;-84
2024/01/30 00:28:31;;;;;;;;;;;6.60;99.90;;;;;;5012257;28;19921;-84
2024/01/30 00:30:56;;;;;;;;;;;6.50;99.90;;;;;;5014470;28;19921;-85
2024/01/30 00:33:22;;;;;;;;;;;6.50;99.90;;;;;;5015041;28;19932;-85
2024/01/30 00:35:47;;;;;;;;;;;6.40;99.90;;;;;;5030563;28;19927;-84
2024/01/30 00:38:13;;;;;;;;;;;7.10;99.90;;;;;;5014391;28;19925;-85
2024/01/30 00:40:38;;;;;;;;;;;6.40;99.90;;;;;;4980952;28;20328;-85
2024/01/30 00:43:04;;;;;;;;;;;6.30;99.90;;;;;;4999395;28;19980;-85
2024/01/30 00:45:30;;;;;;;;;;;6.30;99.90;;;;;;5014271;28;20395;-85
2024/01/30 00:47:55;;;;;;;;;;;6.30;99.90;;;;;;5014768;28;19944;-85
2024/01/30 00:50:21;;;;;;;;;;;6.40;99.90;;;;;;5000772;28;20016;-84
2024/01/30 00:52:47;;;;;;;;;;;6.30;99.90;;;;;;4981969;28;19921;-84
2024/01/30 00:55:12;;;;;;;;;;;6.30;99.90;;;;;;5031428;28;19921;-84
2024/01/30 00:57:38;;;;;;;;;;;6.40;99.90;;;;;;5014859;28;19933;-85
2024/01/30 01:00:06;;;;;;;;;;;6.20;99.90;;;;;;5014811;28;19944;-84
2024/01/30 01:02:31;;;;;;;;;;;6.20;99.90;;;;;;5015222;28;19972;-84
2024/01/30 01:04:57;;;;;;;;;;;6.10;99.90;;;;;;5014471;28;19921;-84
2024/01/30 01:07:23;;;;;;;;;;;6.10;99.90;;;;;;5014724;28;19929;-85
2024/01/30 01:09:48;;;;;;;;;;;6.20;99.90;;;;;;5014377;28;19921;-84
2024/01/30 01:12:14;;;;;;;;;;;6.20;99.90;;;;;;5011088;28;19925;-84
2024/01/30 01:14:39;;;;;;;;;;;6.10;99.90;;;;;;5012618;28;19921;-85
2024/01/30 01:17:05;;;;;;;;;;;6.10;99.90;;;;;;5014900;28;19929;-84
2024/01/30 01:19:31;;;;;;;;;;;6.10;99.90;;;;;;4990991;28;19980;-84
2024/01/30 01:21:56;;;;;;;;;;;6.10;99.90;;;;;;5010970;28;19972;-84
2024/01/30 01:24:22;;;;;;;;;;;6.10;99.90;;;;;;5013552;28;20040;-85
2024/01/30 01:26:47;;;;;;;;;;;6.20;99.90;;;;;;4997801;28;20421;-84
2024/01/30 01:29:13;;;;;;;;;;;6.10;99.90;;;;;;5014768;28;19983;-84
2024/01/30 01:31:43;;;;;;;;;;;6.00;99.90;;;;;;5014574;28;19965;-84
2024/01/30 01:34:09;;;;;;;;;;;6.10;99.90;;;;;;5013310;28;19929;-84
2024/01/30 01:36:35;;;;;;;;;;;6.00;99.90;;;;;;5013593;28;19975;-84
2024/01/30 01:39:00;;;;;;;;;;;6.10;99.90;;;;;;5013565;28;19926;-84
2024/01/30 01:41:30;;;;;;;;;;;6.20;99.90;;;;;;4989492;28;19925;-84
2024/01/30 01:43:55;;;;;;;;;;;6.10;99.90;;;;;;5013761;28;20358;-85
2024/01/30 01:46:21;;;;;;;;;;;6.00;99.90;;;;;;4981993;28;19922;-85
2024/01/30 01:48:46;;;;;;;;;;;6.00;99.90;;;;;;4981697;28;19921;-85
2024/01/30 01:51:12;;;;;;;;;;;6.80;99.90;;;;;;5013802;28;20484;-84
2024/01/30 01:53:38;;;;;;;;;;;6.30;99.90;;;;;;5005192;28;19922;-84
2024/01/30 01:56:04;;;;;;;;;;;6.30;99.90;;;;;;5013090;28;19921;-84
2024/01/30 01:58:30;;;;;;;;;;;5.90;99.90;;;;;;5027265;28;19930;-84
2024/01/30 02:00:56;;;;;;;;;;;6.50;99.90;;;;;;5011056;28;19925;-84
2024/01/30 02:03:22;;;;;;;;;;;6.70;99.90;;;;;;5027447;28;19933;-84
2024/01/30 02:05:47;;;;;;;;;;;6.00;99.90;;;;;;4994292;28;20414;-84
2024/01/30 02:08:13;;;;;;;;;;;5.90;99.90;;;;;;5010423;28;19976;-85
2024/01/30 02:10:39;;;;;;;;;;;6.00;99.90;;;;;;5013477;28;19975;-85
2024/01/30 02:13:04;;;;;;;;;;;6.00;99.90;;;;;;5013102;28;19925;-85
2024/01/30 02:15:30;;;;;;;;;;;6.60;99.90;;;;;;5013982;28;19929;-84
2024/01/30 02:17:55;;;;;;;;;;;5.90;99.90;;;;;;5010599;28;19930;-85
2024/01/30 02:20:22;;;;;;;;;;;6.80;99.90;;;;;;5022007;28;20327;-85
2024/01/30 02:22:48;;;;;;;;;;;5.90;99.90;;;;;;5032491;28;19929;-85
2024/01/30 02:25:13;;;;;;;;;;;5.90;99.90;;;;;;4984707;28;19929;-85
2024/01/30 02:27:39;;;;;;;;;;;5.90;99.90;;;;;;5017767;28;19922;-85
2024/01/30 02:30:05;;;;;;;;;;;6.00;99.90;;;;;;5018121;28;19977;-85
2024/01/30 02:32:30;;;;;;;;;;;5.90;99.90;;;;;;5001197;28;20539;-84
2024/01/30 02:34:56;;;;;;;;;;;5.90;99.90;;;;;;5017475;28;20289;-86
2024/01/30 02:37:22;;;;;;;;;;;5.90;99.90;;;;;;4984786;28;19932;-85
2024/01/30 02:39:47;;;;;;;;;;;6.40;99.90;;;;;;5017171;28;19929;-85
2024/01/30 02:42:13;;;;;;;;;;;5.90;99.90;;;;;;5016847;28;20396;-85
2024/01/30 02:44:38;;;;;;;;;;;5.90;99.90;;;;;;5013092;28;19969;-85
2024/01/30 02:47:04;;;;;;;;;;;6.40;99.90;;;;;;5017296;28;19928;-84
2024/01/30 02:49:29;;;;;;;;;;;5.80;99.90;;;;;;5000999;28;19921;-85
2024/01/30 02:51:56;;;;;;;;;;;5.80;99.90;;;;;;5017376;28;19921;-85
2024/01/30 02:54:22;;;;;;;;;;;6.00;99.90;;;;;;5001341;28;20284;-85
2024/01/30 02:56:48;;;;;;;;;;;5.70;99.90;;;;;;5012332;28;20020;-85
2024/01/30 02:59:13;;;;;;;;;;;5.70;99.90;;;;;;5015806;28;20436;-85
2024/01/30 03:01:44;;;;;;;;;;;6.70;99.90;;;;;;5000778;28;19922;-85
2024/01/30 03:04:09;;;;;;;;;;;5.70;99.90;;;;;;5017231;28;20011;-85
2024/01/30 03:06:35;;;;;;;;;;;5.60;99.90;;;;;;5016804;28;19921;-85
2024/01/30 03:09:00;;;;;;;;;;;5.70;99.90;;;;;;5016111;28;19927;-84
2024/01/30 03:11:26;;;;;;;;;;;5.90;99.90;;;;;;5016567;28;19929;-85
2024/01/30 03:13:51;;;;;;;;;;;6.30;99.90;;;;;;5032060;28;20016;-85
2024/01/30 03:16:17;;;;;;;;;;;5.80;99.90;;;;;;5016353;28;19922;-85
2024/01/30 03:18:43;;;;;;;;;;;6.60;99.90;;;;;;5000046;28;19929;-85
2024/01/30 03:21:08;;;;;;;;;;;5.80;99.90;;;;;;5016088;28;19925;-85
2024/01/30 03:23:34;;;;;;;;;;;5.80;99.90;;;;;;4999963;28;19921;-85
2024/01/30 03:25:59;;;;;;;;;;;5.80;99.90;;;;;;5016850;28;19921;-84
2024/01/30 03:28:25;;;;;;;;;;;5.80;99.90;;;;;;5017435;28;19932;-84
2024/01/30 03:30:51;;;;;;;;;;;6.10;99.90;;;;;;4998609;28;19921;-84
2024/01/30 03:33:16;;;;;;;;;;;5.90;99.90;;;;;;4997894;28;19922;-84
2024/01/30 03:35:42;;;;;;;;;;;5.80;99.90;;;;;;5014783;28;19928;-84
2024/01/30 03:38:08;;;;;;;;;;;5.80;99.90;;;;;;5032462;28;20362;-84
2024/01/30 03:40:33;;;;;;;;;;;6.00;99.90;;;;;;5015770;28;19921;-84
2024/01/30 03:42:59;;;;;;;;;;;5.90;99.90;;;;;;5008159;28;20287;-84
2024/01/30 03:45:24;;;;;;;;;;;6.00;99.90;;;;;;5032253;28;19922;-84
2024/01/30 03:47:50;;;;;;;;;;;5.90;99.90;;;;;;5015054;28;20035;-84
2024/01/30 03:50:16;;;;;;;;;;;6.30;99.90;;;;;;5015579;28;19926;-84
2024/01/30 03:52:41;;;;;;;;;;;6.00;99.90;;;;;;5011702;28;19921;-84
2024/01/30 03:55:07;;;;;;;;;;;5.90;99.90;;;;;;5017798;28;19921;-85
2024/01/30 03:57:32;;;;;;;;;;;6.00;99.90;;;;;;5007256;28;19961;-84
2024/01/30 03:59:58;;;;;;;;;;;6.10;99.90;;;;;;5027910;28;19905;-85
2024/01/30 04:02:24;;;;;;;;;;;6.10;99.90;;;;;;5052399;28;19996;-84
2024/01/30 04:04:50;;;;;;;;;;;6.20;99.90;;;;;;5028787;28;19925;-85
2024/01/30 04:07:15;;;;;;;;;;;6.20;99.90;;;;;;5015678;28;19972;-84
2024/01/30 04:09:41;;;;;;;;;;;6.20;99.90;;;;;;5011450;28;19945;-84
2024/01/30 04:12:07;;;;;;;;;;;6.60;99.90;;;;;;5012913;28;20020;-85
2024/01/30 04:14:32;;;;;;;;;;;6.30;99.90;;;;;;5008602;28;19922;-84
2024/01/30 04:16:58;;;;;;;;;;;6.40;99.90;;;;;;5018590;28;19943;-84
2024/01/30 04:19:23;;;;;;;;;;;6.50;99.90;;;;;;5032158;28;20020;-84
2024/01/30 04:21:49;;;;;;;;;;;6.50;99.90;;;;;;5030688;28;19921;-83
2024/01/30 04:24:17;;;;;;;;;;;6.90;99.90;;;;;;4998507;28;19922;-85
2024/01/30 04:26:42;;;;;;;;;;;6.60;99.90;;;;;;5014190;28;19921;-84
2024/01/30 04:29:08;;;;;;;;;;;6.50;99.90;;;;;;5015915;28;19927;-84
2024/01/30 04:31:35;;;;;;;;;;;6.60;99.90;;;;;;5029065;28;20037;-85
2024/01/30 04:34:01;;;;;;;;;;;7.10;99.90;;;;;;5012652;28;20305;-84
2024/01/30 04:36:26;;;;;;;;;;;6.60;99.90;;;;;;5015323;28;19922;-84
2024/01/30 04:38:52;;;;;;;;;;;6.60;99.90;;;;;;4982740;28;19952;-85
2024/01/30 04:41:18;;;;;;;;;;;6.70;99.90;;;;;;4998260;28;19922;-84
2024/01/30 04:43:43;;;;;;;;;;;6.60;99.90;;;;;;4998601;28;19921;-84
2024/01/30 04:46:09;;;;;;;;;;;6.60;99.90;;;;;;5014086;28;20016;-84
2024/01/30 04:48:34;;;;;;;;;;;7.00;99.90;;;;;;4995814;28;19922;-84
2024/01/30 04:51:02;;;;;;;;;;;6.50;99.90;;;;;;5013436;28;19976;-84
2024/01/30 04:53:29;;;;;;;;;;;7.20;99.90;;;;;;4974353;28;19922;-84
2024/01/30 04:55:55;;;;;;;;;;;6.50;99.90;;;;;;5020971;28;19925;-84
2024/01/30 04:58:20;;;;;;;;;;;7.60;99.90;;;;;;5014221;28;19933;-84
2024/01/30 05:00:51;;;;;;;;;;;6.60;99.90;;;;;;5031296;28;19933;-84
2024/01/30 05:03:17;;;;;;;;;;;6.60;99.90;;;;;;5012871;28;19959;-84
2024/01/30 05:05:43;;;;;;;;;;;6.60;99.90;;;;;;5027488;28;19928;-85
2024/01/30 05:08:08;;;;;;;;;;;6.70;99.90;;;;;;5014093;28;20308;-84
2024/01/30 05:10:34;;;;;;;;;;;7.00;99.90;;;;;;5001614;28;19961;-85
2024/01/30 05:12:59;;;;;;;;;;;6.80;99.90;;;;;;5011352;28;20018;-85
2024/01/30 05:15:25;;;;;;;;;;;6.80;99.90;;;;;;4998428;28;19922;-84
2024/01/30 05:17:51;;;;;;;;;;;6.80;99.90;;;;;;5014135;28;19968;-84
2024/01/30 05:20:16;;;;;;;;;;;7.00;99.90;;;;;;4981999;28;20016;-85
2024/01/30 05:22:44;;;;;;;;;;;6.90;99.90;;;;;;5013536;28;20008;-84
2024/01/30 05:25:10;;;;;;;;;;;7.00;99.90;;;;;;4976073;28;19929;-85
2024/01/30 05:27:36;;;;;;;;;;;7.00;99.90;;;;;;5014036;28;19926;-84
2024/01/30 05:30:02;;;;;;;;;;;7.20;99.90;;;;;;5014594;28;19972;-84
2024/01/30 05:32:27;;;;;;;;;;;7.00;99.90;;;;;;5014111;28;20358;-84
2024/01/30 05:34:53;;;;;;;;;;;7.00;99.90;;;;;;4997794;28;19964;-84
2024/01/30 05:37:19;;;;;;;;;;;7.10;99.90;;;;;;4998309;28;20004;-84
2024/01/30 05:39:44;;;;;;;;;;;7.00;99.90;;;;;;5013835;28;19925;-85
2024/01/30 05:42:10;;;;;;;;;;;7.00;99.90;;;;;;5003900;28;19972;-85
2024/01/30 05:44:35;;;;;;;;;;;7.00;99.90;;;;;;4981414;28;19925;-84
2024/01/30 05:47:01;;;;;;;;;;;7.00;99.90;;;;;;4996538;28;19971;-84
2024/01/30 05:49:26;;;;;;;;;;;7.00;99.90;;;;;;5013491;28;19921;-85
2024/01/30 05:51:52;;;;;;;;;;;7.00;99.90;;;;;;5010073;28;19967;-85
2024/01/30 05:54:18;;;;;;;;;;;7.00;99.90;;;;;;4988593;28;19922;-85
2024/01/30 05:56:43;;;;;;;;;;;7.00;99.90;;;;;;5009026;28;20345;-85
2024/01/30 05:59:09;;;;;;;;;;;7.10;99.90;;;;;;5013570;28;20064;-85
2024/01/30 06:01:34;;;;;;;;;;;7.30;99.90;;;;;;5013813;28;20290;-85
2024/01/30 06:04:01;;;;;;;;;;;8.20;99.90;;;;;;5013843;28;20018;-84
2024/01/30 06:06:26;;;;;;;;;;;8.00;99.90;;;;;;5013273;28;20075;-85
2024/01/30 06:08:55;;;;;;;;;;;7.30;99.90;;;;;;4997644;28;20400;-85
2024/01/30 06:11:20;;;;;;;;;;;7.30;99.90;;;;;;5003123;28;19921;-84
2024/01/30 06:13:46;;;;;;;;;;;7.30;99.90;;;;;;5012780;28;19936;-84
2024/01/30 06:16:12;;;;;;;;;;;7.40;99.90;;;;;;4996737;28;19922;-85
2024/01/30 06:18:37;;;;;;;;;;;7.50;99.90;;;;;;4997408;28;20389;-84
2024/01/30 06:21:04;;;;;;;;;;;7.40;99.90;;;;;;5013872;28;19922;-85
2024/01/30 06:23:29;;;;;;;;;;;7.40;99.90;;;;;;4997171;28;19922;-85
2024/01/30 06:25:55;;;;;;;;;;;7.50;99.90;;;;;;5013468;28;19921;-84
2024/01/30 06:28:20;;;;;;;;;;;7.40;99.90;;;;;;4997117;28;19921;-85
2024/01/30 06:30:46;;;;;;;;;;;7.50;99.90;;;;;;5013370;28;19932;-85
2024/01/30 06:33:12;;;;;;;;;;;7.50;99.90;;;;;;5010217;28;20009;-85
2024/01/30 06:35:40;;;;;;;;;;;7.50;99.90;;;;;;5007513;28;19925;-85
2024/01/30 06:38:05;;;;;;;;;;;7.50;99.90;;;;;;5013332;28;20027;-84
2024/01/30 06:40:31;;;;;;;;;;;7.50;99.90;;;;;;5029929;28;19925;-85
2024/01/30 06:42:57;;;;;;;;;;;7.50;99.90;;;;;;5029873;28;19976;-85
2024/01/30 06:45:22;;;;;;;;;;;7.60;99.90;;;;;;5023481;28;20000;-85
2024/01/30 06:47:48;;;;;;;;;;;7.70;99.90;;;;;;4997278;28;19983;-85
2024/01/30 06:50:14;;;;;;;;;;;7.60;99.90;;;;;;5013260;28;20381;-85
2024/01/30 06:52:39;;;;;;;;;;;7.60;99.90;;;;;;5011321;28;19928;-84
2024/01/30 06:55:05;;;;;;;;;;;7.60;99.90;;;;;;5013573;28;19925;-84
2024/01/30 06:57:30;;;;;;;;;;;7.50;99.90;;;;;;5012506;28;20016;-85
2024/01/30 06:59:56;;;;;;;;;;;7.50;99.90;;;;;;5008907;28;20385;-84
2024/01/30 07:02:22;;;;;;;;;;;7.00;99.90;;;;;;5013535;28;19925;-85
2024/01/30 07:04:47;;;;;;;;;;;7.50;99.90;;;;;;5013642;28;19921;-85
2024/01/30 07:07:14;;;;;;;;;;;7.50;99.90;;;;;;5015395;28;19921;-85
2024/01/30 07:09:40;;;;;;;;;;;7.50;99.90;;;;;;5016345;28;19929;-85
2024/01/30 07:12:06;;;;;;;;;;;7.60;99.90;;;;;;5014148;28;19933;-85
2024/01/30 07:14:32;;;;;;;;;;;7.60;99.90;;;;;;5013999;28;19922;-85
2024/01/30 07:16:57;;;;;;;;;;;7.70;99.90;;;;;;5001256;28;19965;-85
2024/01/30 07:19:23;;;;;;;;;;;7.80;99.90;;;;;;5017155;28;19932;-84
2024/01/30 07:21:48;;;;;;;;;;;7.70;99.90;;;;;;5007551;28;19929;-84
2024/01/30 07:24:14;;;;;;;;;;;7.80;99.90;;;;;;5016708;28;19928;-85
2024/01/30 07:26:40;;;;;;;;;;;7.80;99.90;;;;;;4998192;28;19921;-85
2024/01/30 07:29:05;;;;;;;;;;;7.80;99.90;;;;;;5000143;28;19925;-85
2024/01/30 07:31:31;;;;;;;;;;;7.90;99.90;;;;;;5016689;28;20374;-85
2024/01/30 07:33:57;;;;;;;;;;;8.00;99.90;;;;;;5016624;28;19974;-85
2024/01/30 07:36:22;;;;;;;;;;;7.90;99.90;;;;;;5016286;28;19925;-85
2024/01/30 07:38:48;;;;;;;;;;;8.00;99.90;;;;;;5015261;28;19926;-84
2024/01/30 07:41:13;;;;;;;;;;;8.00;99.90;;;;;;4997721;28;19921;-85
2024/01/30 07:43:39;;;;;;;;;;;7.90;99.90;;;;;;5015523;28;20012;-84
2024/01/30 07:46:06;;;;;;;;;;;8.40;99.90;;;;;;4998748;28;19992;-84
2024/01/30 07:48:33;;;;;;;;;;;8.00;99.90;;;;;;5006113;28;20016;-84
2024/01/30 07:50:59;;;;;;;;;;;8.10;99.90;;;;;;5000862;28;20016;-84
2024/01/30 07:53:25;;;;;;;;;;;8.10;99.90;;;;;;5027841;28;20273;-85
2024/01/30 07:55:51;;;;;;;;;;;8.10;99.90;;;;;;5016980;28;20016;-84
2024/01/30 07:58:17;;;;;;;;;;;8.10;99.90;;;;;;5012238;28;19926;-87
2024/01/30 08:00:43;;;;;;;;;;;8.30;99.90;;;;;;5015489;28;19928;-85
2024/01/30 08:03:08;;;;;;;;;;;8.10;99.90;;;;;;5007548;28;19971;-85
2024/01/30 08:05:34;;;;;;;;;;;8.20;99.90;;;;;;5000537;28;19922;-84
2024/01/30 08:07:59;;;;;;;;;;;8.30;99.90;;;;;;4998347;28;20357;-84
2024/01/30 08:10:25;;;;;;;;;;;8.20;99.90;;;;;;5015271;28;20285;-85
2024/01/30 08:12:50;;;;;;;;;;;9.20;99.90;;;;;;5014354;28;19934;-84
2024/01/30 08:15:16;;;;;;;;;;;8.10;99.90;;;;;;5014986;28;20035;-82
2024/01/30 08:17:42;;;;;;;;;;;8.20;99.90;;;;;;4998943;28;20285;-83
2024/01/30 08:20:11;;;;;;;;;;;8.20;99.90;;;;;;4999008;28;19968;-83
2024/01/30 08:22:40;;;;;;;;;;;8.20;99.90;;;;;;4999630;28;20417;-84
2024/01/30 08:25:06;;;;;;;;;;;8.10;99.90;;;;;;4998325;28;19969;-84
2024/01/30 08:27:31;;;;;;;;;;;8.20;99.90;;;;;;4999299;28;19929;-85
2024/01/30 08:29:57;;;;;;;;;;;8.20;99.90;;;;;;4999518;28;19921;-84
2024/01/30 08:32:23;;;;;;;;;;;8.20;99.90;;;;;;5014579;28;19927;-85
2024/01/30 08:34:49;;;;;;;;;;;8.80;99.90;;;;;;5013085;28;19928;-86
2024/01/30 08:37:16;;;;;;;;;;;8.50;99.90;;;;;;4983025;28;20028;-85
2024/01/30 08:39:42;;;;;;;;;;;8.30;99.90;;;;;;4983345;28;19983;-84
2024/01/30 08:42:08;;;;;;;;;;;8.30;99.90;;;;;;5015740;28;19921;-85
2024/01/30 08:44:33;;;;;;;;;;;8.30;99.90;;;;;;5015881;28;19928;-84
2024/01/30 08:46:59;;;;;;;;;;;8.30;99.90;;;;;;5014322;28;19981;-85
2024/01/30 08:49:24;;;;;;;;;;;8.30;99.90;;;;;;4997298;28;19929;-84
2024/01/30 08:51:50;;;;;;;;;;;8.40;99.90;;;;;;5014179;28;19926;-85
2024/01/30 08:54:16;;;;;;;;;;;8.40;99.90;;;;;;5015602;28;20400;-86
2024/01/30 08:56:41;;;;;;;;;;;8.50;99.90;;;;;;4999230;28;19922;-86
2024/01/30 08:59:07;;;;;;;;;;;8.50;99.90;;;;;;5015393;28;19930;-85
2024/01/30 09:01:32;;;;;;;;;;;8.60;99.90;;;;;;5015392;28;19921;-86
2024/01/30 09:03:58;;;;;;;;;;;8.70;99.90;;;;;;5016173;28;20340;-85
2024/01/30 09:06:26;;;;;;;;;;;8.90;99.90;;;;;;5015158;28;19922;-85
2024/01/30 09:08:52;;;;;;;;;;;8.70;99.90;;;;;;4995610;28;19928;-85
2024/01/30 09:11:17;;;;;;;;;;;8.70;99.90;;;;;;5009742;28;19965;-83
2024/01/30 09:13:43;;;;;;;;;;;8.80;99.90;;;;;;5012785;28;19921;-86
2024/01/30 09:16:09;;;;;;;;;;;8.80;99.90;;;;;;5009697;28;19930;-85
2024/01/30 09:18:34;;;;;;;;;;;8.90;99.90;;;;;;5007735;28;19926;-84
2024/01/30 09:21:00;;;;;;;;;;;9.00;99.90;;;;;;4997228;28;19969;-84
2024/01/30 09:23:27;;;;;;;;;;;9.00;99.90;;;;;;4997284;28;20066;-86
2024/01/30 09:25:53;;;;;;;;;;;9.00;99.90;;;;;;5015421;28;19921;-84
2024/01/30 09:28:18;;;;;;;;;;;9.00;99.90;;;;;;5013859;28;19943;-83
2024/01/30 09:30:44;;;;;;;;;;;9.00;99.90;;;;;;5009346;28;19921;-84
2024/01/30 09:33:09;;;;;;;;;;;9.00;99.90;;;;;;5008629;28;19929;-83
2024/01/30 09:35:36;;;;;;;;;;;9.10;99.90;;;;;;5009633;28;19967;-83
2024/01/30 09:38:02;;;;;;;;;;;9.20;99.90;;;;;;5010603;28;20473;-83
2024/01/30 09:40:28;;;;;;;;;;;9.10;99.90;;;;;;5013502;28;19928;-84
2024/01/30 09:42:53;;;;;;;;;;;9.20;99.90;;;;;;4999784;28;20004;-87
2024/01/30 09:45:19;;;;;;;;;;;9.20;99.90;;;;;;5030332;28;20321;-84
2024/01/30 09:47:45;;;;;;;;;;;9.20;99.90;;;;;;5010875;28;19937;-83
2024/01/30 09:50:12;;;;;;;;;;;9.20;99.90;;;;;;5003684;28;19921;-83
2024/01/30 09:52:38;;;;;;;;;;;9.30;99.90;;;;;;4992421;28;19921;-84
2024/01/30 09:55:03;;;;;;;;;;;9.30;99.90;;;;;;4996281;28;19944;-84
2024/01/30 09:57:29;;;;;;;;;;;9.30;99.90;;;;;;5012714;28;19921;-83
2024/01/30 09:59:55;;;;;;;;;;;9.30;99.90;;;;;;5010434;28;19925;-83
2024/01/30 10:02:21;;;;;;;;;;;9.40;99.90;;;;;;4995373;28;19921;-83
2024/01/30 10:04:51;;;;;;;;;;;9.50;99.90;;;;;;5009381;28;20092;-84
2024/01/30 10:07:17;;;;;;;;;;;9.60;99.90;;;;;;5013810;28;19932;-83
2024/01/30 10:09:42;;;;;;;;;;;9.60;99.90;;;;;;5031165;28;19952;-83
2024/01/30 10:12:12;;;;;;;;;;;9.60;99.90;;;;;;4991739;28;19921;-83
2024/01/30 10:14:38;;;;;;;;;;;9.70;99.90;;;;;;5012980;28;19940;-84
2024/01/30 10:17:04;;;;;;;;;;;9.80;99.90;;;;;;5014063;28;19985;-84
2024/01/30 10:19:29;;;;;;;;;;;9.80;99.90;;;;;;4996658;28;19925;-83
2024/01/30 10:21:55;;;;;;;;;;;9.80;99.90;;;;;;5011129;28;19921;-84
2024/01/30 10:24:24;;;;;;;;;;;9.30;99.90;;;;;;4999659;28;19979;-83
2024/01/30 10:26:49;;;;;;;;;;;9.90;99.90;;;;;;4998045;28;19921;-84
2024/01/30 10:29:16;;;;;;;;;;;9.90;99.90;;;;;;5009447;28;19976;-84
2024/01/30 10:31:41;;;;;;;;;;;10.10;99.90;;;;;;5009428;28;19928;-85
2024/01/30 10:34:07;;;;;;;;;;;10.10;99.90;;;;;;5010801;28;20382;-84
2024/01/30 10:36:33;;;;;;;;;;;10.20;99.90;;;;;;4994547;28;19921;-85
2024/01/30 10:38:59;;;;;;;;;;;10.20;99.90;;;;;;4980055;28;19926;-84
2024/01/30 10:41:31;;;;;;;;;;;10.20;99.90;;;;;;5010283;28;19921;-84
2024/01/30 10:44:06;;;;;;;;;;;10.30;99.90;;;;;;4999853;28;19921;-84
2024/01/30 10:46:31;;;;;;;;;;;10.40;99.90;;;;;;5015318;28;19921;-84
2024/01/30 10:49:01;;;;;;;;;;;10.20;99.90;;;;;;5017075;28;19968;-84
2024/01/30 10:51:27;;;;;;;;;;;10.40;99.90;;;;;;5015508;28;19925;-84
2024/01/30 10:53:53;;;;;;;;;;;10.40;99.90;;;;;;4997136;28;20542;-84
2024/01/30 10:56:22;;;;;;;;;;;10.50;99.90;;;;;;5013964;28;19975;-83
2024/01/30 10:58:52;;;;;;;;;;;10.50;99.90;;;;;;5013782;28;20270;-84
2024/01/30 11:01:19;;;;;;;;;;;10.50;99.90;;;;;;5010164;28;19922;-83
2024/01/30 11:03:45;;;;;;;;;;;10.50;99.90;;;;;;5028087;28;19921;-83
2024/01/30 11:06:11;;;;;;;;;;;10.50;99.90;;;;;;5020987;28;20260;-84
2024/01/30 11:08:37;;;;;;;;;;;10.50;99.90;;;;;;5003284;28;19956;-84
2024/01/30 11:11:07;;;;;;;;;;;10.50;99.90;;;;;;5009401;28;20370;-85
2024/01/30 11:13:34;;;;;;;;;;;10.50;99.90;;;;;;5015611;28;19922;-83
2024/01/30 11:16:06;;;;;;;;;;;10.90;99.90;;;;;;5019412;28;19928;-85
2024/01/30 11:18:32;;;;;;;;;;;10.60;99.90;;;;;;5013310;28;19932;-85
2024/01/30 11:21:01;;;;;;;;;;;10.50;99.90;;;;;;4990798;28;19925;-83
2024/01/30 11:23:28;;;;;;;;;;;10.60;99.90;;;;;;4996651;28;19961;-84
2024/01/30 11:25:53;;;;;;;;;;;10.60;99.90;;;;;;4990659;28;20393;-84
2024/01/30 11:28:20;;;;;;;;;;;10.60;99.90;;;;;;5014049;28;19929;-84
2024/01/30 11:30:47;;;;;;;;;;;10.60;99.90;;;;;;5011532;28;19930;-84
2024/01/30 11:33:14;;;;;;;;;;;10.80;99.90;;;;;;5012997;28;20015;-83
2024/01/30 11:35:40;;;;;;;;;;;10.80;99.90;;;;;;5006083;28;20020;-83
2024/01/30 11:38:07;;;;;;;;;;;10.90;99.90;;;;;;5012286;28;20381;-86
2024/01/30 11:40:33;;;;;;;;;;;11.00;99.90;;;;;;4999589;28;19921;-86
2024/01/30 11:42:59;;;;;;;;;;;10.20;99.90;;;;;;5011829;28;20397;-84
2024/01/30 11:45:26;;;;;;;;;;;11.10;99.90;;;;;;4998361;28;19921;-86
2024/01/30 11:47:51;;;;;;;;;;;11.10;99.90;;;;;;5015903;28;19921;-86
2024/01/30 11:50:17;;;;;;;;;;;11.10;99.90;;;;;;4996462;28;19928;-86
2024/01/30 11:52:43;;;;;;;;;;;11.10;99.90;;;;;;5013213;28;20072;-86
2024/01/30 11:55:09;;;;;;;;;;;11.20;99.90;;;;;;4997958;28;19921;-86
2024/01/30 11:57:36;;;;;;;;;;;11.20;99.90;;;;;;4978970;28;19927;-86
2024/01/30 12:00:10;;;;;;;;;;;11.10;99.90;;;;;;5008920;28;19975;-86
2024/01/30 12:02:36;;;;;;;;;;;11.10;99.90;;;;;;5014255;28;19928;-86
2024/01/30 12:05:05;;;;;;;;;;;11.00;99.90;;;;;;4998218;28;19928;-86
2024/01/30 12:07:31;;;;;;;;;;;10.90;99.90;;;;;;5010498;28;19929;-86
2024/01/30 12:09:57;;;;;;;;;;;10.80;99.90;;;;;;5038204;28;19929;-87
2024/01/30 12:12:24;;;;;;;;;;;10.80;99.90;;;;;;5008071;28;19967;-86
2024/01/30 12:14:50;;;;;;;;;;;10.70;99.90;;;;;;4998752;28;19926;-86
2024/01/30 12:17:32;;;;;;;;;;;10.70;99.90;;;;;;5005885;28;19921;-86
2024/01/30 12:20:08;;;;;;;;;;;10.80;99.90;;;;;;5015378;28;19932;-85
2024/01/30 12:22:40;;;;;;;;;;;10.70;99.90;;;;;;4989343;28;20192;-86
2024/01/30 12:25:09;;;;;;;;;;;10.60;99.90;;;;;;5010711;28;19921;-86
2024/01/30 12:27:35;;;;;;;;;;;10.60;99.90;;;;;;5002383;28;19969;-86
2024/01/30 12:30:01;;;;;;;;;;;10.60;99.90;;;;;;5032108;28;20285;-86
2024/01/30 12:32:27;;;;;;;;;;;10.50;99.90;;;;;;5031631;28;19971;-86
2024/01/30 12:34:59;;;;;;;;;;;10.50;99.90;;;;;;5014272;28;19941;-86
2024/01/30 12:37:25;;;;;;;;;;;10.50;99.90;;;;;;4998350;28;20381;-87
2024/01/30 12:39:54;;;;;;;;;;;10.50;99.90;;;;;;5016305;28;19932;-87
2024/01/30 12:42:20;;;;;;;;;;;10.40;99.90;;;;;;5009473;28;19921;-86
2024/01/30 12:44:46;;;;;;;;;;;10.40;99.90;;;;;;4995921;28;19921;-86
2024/01/30 12:47:11;;;;;;;;;;;10.40;99.90;;;;;;5014839;28;19921;-87
2024/01/30 12:49:37;;;;;;;;;;;10.40;99.90;;;;;;5012356;28;19925;-87
2024/01/30 12:52:03;;;;;;;;;;;10.40;99.90;;;;;;4998657;28;19921;-87
2024/01/30 12:54:28;;;;;;;;;;;10.40;99.90;;;;;;5015493;28;19921;-85
2024/01/30 12:56:56;;;;;;;;;;;10.30;99.90;;;;;;5014231;28;19922;-85
2024/01/30 12:59:21;;;;;;;;;;;10.30;99.90;;;;;;5012980;28;19929;-84
2024/01/30 13:01:47;;;;;;;;;;;10.20;99.90;;;;;;4991239;28;19928;-85
2024/01/30 13:04:12;;;;;;;;;;;10.10;99.90;;;;;;4991624;28;19928;-85
2024/01/30 13:06:38;;;;;;;;;;;10.00;99.90;;;;;;4998283;28;19921;-86
2024/01/30 13:09:05;;;;;;;;;;;10.00;99.90;;;;;;5014561;28;19929;-86
2024/01/30 13:11:31;;;;;;;;;;;9.90;99.90;;;;;;5014241;28;19922;-85
2024/01/30 13:13:57;;;;;;;;;;;9.90;99.90;;;;;;5012259;28;19933;-85
2024/01/30 13:16:23;;;;;;;;;;;9.90;99.90;;;;;;5031897;28;19921;-86
2024/01/30 13:18:48;;;;;;;;;;;9.80;99.90;;;;;;5015730;28;19933;-85
2024/01/30 13:21:14;;;;;;;;;;;9.80;99.90;;;;;;4998666;28;19965;-85
2024/01/30 13:23:40;;;;;;;;;;;9.80;99.90;;;;;;5009697;28;19936;-85
2024/01/30 13:26:06;;;;;;;;;;;9.80;99.90;;;;;;5011256;28;19905;-84
2024/01/30 13:28:33;;;;;;;;;;;9.70;99.90;;;;;;5032860;28;19968;-85
2024/01/30 13:30:58;;;;;;;;;;;9.70;99.90;;;;;;5026031;28;19909;-86
2024/01/30 13:33:24;;;;;;;;;;;9.80;99.90;;;;;;5015683;28;19932;-85
2024/01/30 13:35:50;;;;;;;;;;;9.80;99.90;;;;;;5027842;28;19922;-86
2024/01/30 13:38:15;;;;;;;;;;;9.90;99.90;;;;;;4981439;28;19925;-86
2024/01/30 13:40:41;;;;;;;;;;;9.90;99.90;;;;;;5012822;28;19972;-85
2024/01/30 13:43:07;;;;;;;;;;;9.90;99.90;;;;;;5003463;28;19922;-85
2024/01/30 13:45:32;;;;;;;;;;;10.00;99.90;;;;;;5017911;28;19925;-85
2024/01/30 13:47:59;;;;;;;;;;;9.90;99.90;;;;;;5025805;28;19917;-84
2024/01/30 13:50:24;;;;;;;;;;;10.10;99.90;;;;;;5029563;28;19921;-85
2024/01/30 13:52:50;;;;;;;;;;;9.90;99.90;;;;;;5014020;28;19929;-87
2024/01/30 13:55:15;;;;;;;;;;;9.80;99.90;;;;;;5022885;28;20139;-87
2024/01/30 13:57:41;;;;;;;;;;;9.80;99.90;;;;;;5019370;28;20354;-86
2024/01/30 14:00:07;;;;;;;;;;;9.80;99.90;;;;;;5013128;28;19929;-86
2024/01/30 14:02:33;;;;;;;;;;;9.80;99.90;;;;;;4998843;28;19929;-85
2024/01/30 14:04:58;;;;;;;;;;;9.80;99.90;;;;;;5014717;28;19929;-86
2024/01/30 14:07:24;;;;;;;;;;;9.70;99.90;;;;;;5012849;28;19922;-86
2024/01/30 14:09:50;;;;;;;;;;;9.60;99.90;;;;;;5011842;28;20313;-86
2024/01/30 14:12:15;;;;;;;;;;;9.60;99.90;;;;;;4997558;28;19960;-86
2024/01/30 14:14:43;;;;;;;;;;;9.60;99.90;;;;;;5010985;28;20204;-86
2024/01/30 14:17:09;;;;;;;;;;;9.60;99.90;;;;;;4983685;28;20524;-86
2024/01/30 14:19:35;;;;;;;;;;;9.60;99.90;;;;;;5013360;28;19925;-85
2024/01/30 14:22:01;;;;;;;;;;;9.60;99.90;;;;;;4979613;28;19932;-87